Flight Track Log - Related Links

Times and Time Zones

All times are in EDT time to prevent confusion due to time zone crossing. See the N1804S flight status page for this flight to view local times or setup timezone preferences in your user account.

Time Position Orientation Groundspeed Altitude Reporting Facility
EDT Latitude Longitude Course Direction KTS MPH feet Rate Location/Type
Thu 09:40:00 PM 31.9178 -81.1839 157° South  Level FlightAware Approximate
Thu 09:41:00 PM 31.8834 -81.1833 180° South  Level FlightAware Approximate
Thu 09:42:00 PM 31.8502 -81.1916 203° Southwest  Level FlightAware Approximate
Thu 09:43:00 PM 31.8177 -81.2052 196° South  Level FlightAware Approximate
Thu 09:44:00 PM 31.7845 -81.2163 196° South  Level FlightAware Approximate
Thu 09:45:00 PM 31.7512 -81.2274 196° South  Level FlightAware Approximate
Thu 09:46:00 PM 31.7173 -81.2387 196° South  Level FlightAware Approximate
Thu 09:47:00 PM 31.6833 -81.2500 194° South  Level FlightAware Approximate
Thu 09:48:00 PM 31.6490 -81.2598 194° South  Level FlightAware Approximate
Thu 09:49:00 PM 31.6147 -81.2696 194° South  Level FlightAware Approximate
Thu 09:49:21 PM 31.6783 -81.2861 194° South 146 168 6,000  Level Jacksonville Center
Thu 09:50:00 PM 31.5805 -81.2794 194° South  Level FlightAware Approximate
Thu 09:50:21 PM 31.6411 -81.3114 210° Southwest 146 168 6,000  Level Jacksonville Center
Thu 09:51:00 PM 31.5462 -81.2892 194° South  Level FlightAware Approximate
Thu 09:51:21 PM 31.6014 -81.3192 189° South 146 168 6,000  Level Jacksonville Center
Thu 09:52:00 PM 31.5119 -81.2990 194° South  Level FlightAware Approximate
Thu 09:52:21 PM 31.5617 -81.3225 184° South 146 168 6,000  Level Jacksonville Center
Thu 09:53:00 PM 31.4776 -81.3088 194° South  Level FlightAware Approximate
Thu 09:53:21 PM 31.5242 -81.3278 187° South 146 168 6,100  Level Jacksonville Center
Thu 09:54:21 PM 31.4806 -81.3383 192° South 146 168 6,000 -50 Descending Jacksonville Center
Thu 09:55:21 PM 31.4389 -81.3511 195° South 151 174 6,000 -50 Level Jacksonville Center
Thu 09:56:21 PM 31.3994 -81.3642 196° South 144 166 5,900  Descending Jacksonville Center
Thu 09:57:21 PM 31.3597 -81.3719 189° South 144 166 6,000 50 Climbing Jacksonville Center
Thu 09:58:21 PM 31.3267 -81.3847 198° South 144 166 6,000  Level Jacksonville Center
Thu 09:59:21 PM 31.2828 -81.3950 191° South 144 166 6,000  Level Jacksonville Center
Thu 10:00:21 PM 31.2456 -81.4078 196° South 144 166 6,000 -50 Level Jacksonville Center
Thu 10:01:21 PM 31.2058 -81.4158 190° South 144 166 5,900  Descending Jacksonville Center
Thu 10:01:56 PM 31.1831 -81.4211 191° South 144 166 6,000  Climbing Jacksonville Center
Thu 10:02:21 PM 31.1725 -81.4236 191° South 144 166 5,900 -98 Descending Jacksonville Center
Thu 10:02:57 PM 31.1433 -81.4242 181° South 148 170 5,900 100 Level Jacksonville Center
Thu 10:03:21 PM 31.1308 -81.4292 199° South 144 166 6,000 111 Climbing Jacksonville Center
Thu 10:03:51 PM 31.1078 -81.4294 181° South 138 159 6,000 -100 Level Jacksonville Center
Thu 10:04:21 PM 31.0892 -81.4297 181° South 144 166 5,900  Descending Jacksonville Center
Thu 10:04:52 PM 31.0661 -81.4325 186° South 142 163 6,000 100 Climbing Jacksonville Center
Thu 10:05:21 PM 31.0475 -81.4378 194° South 144 166 6,000  Level Jacksonville Center
Thu 10:05:53 PM 31.0267 -81.4381 181° South 143 165 6,000  Level Jacksonville Center
Thu 10:06:21 PM 31.0100 -81.4406 187° South 144 166 6,000  Level Jacksonville Center
Thu 10:06:54 PM 30.9869 -81.4433 186° South 144 166 6,000  Level Jacksonville Center
Thu 10:07:21 PM 30.9703 -81.4436 181° South 144 166 6,000  Level Jacksonville Center
Thu 10:07:55 PM 30.9453 -81.4464 185° South 143 165 6,000  Level Jacksonville Center
Thu 10:08:21 PM 30.9286 -81.4517 195° South 144 166 6,000  Level Jacksonville Center
Thu 10:08:55 PM 30.9078 -81.4592 197° South 144 166 6,000  Level Jacksonville Center
Thu 10:09:21 PM 30.8911 -81.4619 188° South 144 166 6,000  Level Jacksonville Center
Thu 10:10:02 PM 30.8639 -81.4647 185° South 143 165 6,000 100 Level Jacksonville Center
Thu 10:10:21 PM 30.8514 -81.4672 190° South 144 166 6,100  Climbing Jacksonville Center
Thu 10:11:03 PM 30.8244 -81.4678 181° South 142 163 6,000 -62 Descending Jacksonville Center
Thu 10:11:58 PM 30.7889 -81.4778 194° South 140 161 6,000  Level Jacksonville Center
Thu 10:12:59 PM 30.7472 -81.4883 192° South 139 160 6,000  Level Jacksonville Center
Thu 10:13:59 PM 30.7097 -81.4936 187° South 138 159 6,000  Level Jacksonville Center
Thu 10:15:06 PM 30.6681 -81.4822 167° South 138 159 6,000  Level Jacksonville Center
Thu 10:16:07 PM 30.6283 -81.4828 181° South 141 162 6,000  Level Jacksonville Center
Thu 10:17:08 PM 30.5867 -81.4858 184° South 139 160 6,000  Level Jacksonville Center
Thu 10:18:03 PM 30.5553 -81.4861 180° South 141 162 6,000  Level Jacksonville Center
Thu 10:19:04 PM 30.5114 -81.4942 189° South 138 159 6,000  Level Jacksonville Center
Thu 10:20:17 PM 30.4656 -81.4972 183° South 143 165 6,000 45 Level Jacksonville Center
Thu 10:21:17 PM 30.4258 -81.5025 187° South 139 160 6,100 -298 Climbing Jacksonville Center
Thu 10:22:18 PM 30.3864 -81.5056 184° South 139 160 5,400 -590 Descending Jacksonville Center
Thu 10:23:19 PM 30.3467 -81.5108 187° South 144 166 4,900 -545 Descending Jacksonville Center
Thu 10:24:19 PM 30.3072 -81.5211 193° South 142 163 4,300 -446 Descending Jacksonville Center
Thu 10:25:20 PM 30.2675 -81.5217 181° South 139 160 4,000 -148 Descending Jacksonville Center
Thu 10:26:21 PM 30.2300 -81.5197 177° South 141 162 4,000  Level Jacksonville Center
Thu 10:27:15 PM 30.1964 -81.5058 160° South 139 160 4,000  Level Jacksonville Center
Thu 10:28:16 PM 30.1586 -81.4967 168° South 144 166 4,000  Level Jacksonville Center
Thu 10:29:17 PM 30.1192 -81.5022 187° South 142 163 4,000  Level Jacksonville Center
Thu 10:30:11 PM 30.0833 -81.4931 168° South 139 160 4,000  Level Jacksonville Center
Thu 10:31:12 PM 30.0439 -81.4936 181° South 142 163 4,000  Level Jacksonville Center
Thu 10:32:13 PM 30.0042 -81.4919 178° South 144 166 4,000  Level Jacksonville Center
Thu 10:33:10 PM 29.9686 -81.4875 174° South 143 165 4,000  Level Jacksonville Center
Thu 10:33:53 PM 29.9414 -81.4881 181° South 139 160 4,000 -61 Level Jacksonville Center
Thu 10:34:48 PM 29.9058 -81.4861 177° South 137 158 3,900 -52 Descending Jacksonville Center
Thu 10:35:49 PM 29.8725 -81.4842 177° South 125 144 3,900  Level Jacksonville Center
Thu 10:36:49 PM 29.8369 -81.4800 174° South 112 129 3,900  Level Jacksonville Center
Thu 10:37:50 PM 29.8078 -81.4756 172° South 110 127 3,900  Level Jacksonville Center
Thu 10:38:51 PM 29.7764 -81.4664 166° South 112 129 3,900 49 Level Jacksonville Center
Thu 10:39:52 PM 29.7450 -81.4692 184° South 116 133 4,000 47 Climbing Jacksonville Center
Thu 10:40:58 PM 29.7094 -81.4697 181° South 114 131 4,000  Level Jacksonville Center
Thu 10:41:59 PM 29.6783 -81.4750 188° South 114 131 4,000  Level Jacksonville Center
Thu 10:43:00 PM 29.6469 -81.4731 177° South 115 132 4,000 -49 Level Jacksonville Center
Thu 10:44:01 PM 29.6156 -81.4639 166° South 115 132 3,900 -52 Descending Jacksonville Center
Thu 10:44:56 PM 29.5842 -81.4622 177° South 114 131 3,900  Level Jacksonville Center
Thu 10:46:02 PM 29.5506 -81.4506 163° South 109 125 3,900  Level Jacksonville Center
Thu 10:47:03 PM 29.5214 -81.4464 173° South 110 127 3,900 49 Level Jacksonville Center
Thu 10:48:04 PM 29.4919 -81.4372 165° South 105 121 4,000 50 Climbing Jacksonville Center
Thu 10:49:04 PM 29.4628 -81.4328 172° South 106 122 4,000  Level Jacksonville Center
Thu 10:50:05 PM 29.4314 -81.4286 173° South 111 128 4,000 49 Level Jacksonville Center
Thu 10:51:06 PM 29.4000 -81.4242 173° South 114 131 4,100 -52 Climbing Jacksonville Center
Thu 10:52:00 PM 29.3731 -81.4269 185° South 117 135 3,900 -104 Descending Jacksonville Center
Thu 10:53:01 PM 29.3394 -81.4275 181° South 110 127 3,900 50 Level Jacksonville Center
Thu 10:54:01 PM 29.3083 -81.4256 177° South 110 127 4,000  Climbing Jacksonville Center
Thu 10:55:02 PM 29.2767 -81.4167 166° South 111 128 3,900 -49 Descending Jacksonville Center
Thu 10:56:03 PM 29.2475 -81.4097 168° South 109 125 3,900 33 Level Jacksonville Center
Thu 10:58:03 PM 29.2000 -81.3833 154° Southeast 108 124 4,000 36 Climbing Orlando TRACON
Thu 10:58:51 PM 29.1667 -81.3833 180° South 112 129 4,000 -34 Level Orlando TRACON
Thu 11:00:57 PM 29.1000 -81.3833 180° South 112 129 3,900  Descending Orlando TRACON
Thu 11:01:51 PM 29.0667 -81.3833 180° South 110 127 4,000 53 Climbing Orlando TRACON
Thu 11:02:51 PM 29.0500 -81.3833 180° South 127 146 4,000  Level Orlando TRACON
Thu 11:03:52 PM 29.0000 -81.3833 180° South 146 168 4,000 -50 Level Orlando TRACON
Thu 11:04:51 PM 28.9667 -81.3833 180° South 147 169 3,900 -50 Descending Orlando TRACON
Thu 11:05:52 PM 28.9167 -81.3833 180° South 151 174 3,900 -238 Level Orlando TRACON
Thu 11:06:57 PM 28.8667 -81.3667 164° South 153 176 3,400 -555 Descending Orlando TRACON
Thu 11:07:51 PM 28.8333 -81.3500 156° South 158 182 2,800 -579 Descending Orlando TRACON
Thu 11:08:51 PM 28.8000 -81.3667 204° Southwest 150 173 2,300 -350 Descending Orlando TRACON
Thu 11:09:51 PM 28.7500 -81.3667 180° South 145 167 2,100 -190 Descending Orlando TRACON
Thu 11:10:57 PM 28.7167 -81.3833 204° Southwest 141 162 1,900 -95 Descending Orlando TRACON
Thu 11:11:57 PM 28.6833 -81.4167 221° Southwest 134 154 1,900  Level Orlando TRACON
Thu 11:12:52 PM 28.6500 -81.4333 204° Southwest 134 154 1,900 -137 Level Orlando TRACON
Thu 11:14:52 PM 28.5833 -81.4167 111° Southeast 130 150 1,500 -241 Descending Orlando TRACON
Thu 11:15:46 PM 28.5500 -81.4167 180° South 119 137 1,200 -204 Descending Orlando TRACON
Thu 11:19:46 PM 28.5333 -81.3667 170° South 113 130 500 -175 Descending Orlando TRACON
Thu 11:21:00 PM 28.5455 -81.3329 90° East  Level Estimated
Thu 11:24:00 PM 28.5455 -81.3329 170° South  Level Estimated
Thu 11:28:00 PM 28.5455 -81.3329 90° East  Level Estimated
Thu 11:29:00 PM 28.5455 -81.3329 130° Southeast  Level Estimated

Login

Don't have an account? Register now (free) for customized features, flight alerts, and more!